Time;durP1;ratioP1;P1;durP2;ratioP2;P2;SDS_P1;SDS_P2;PMS_P1;PMS_P2;Temp;Humidity;BMP_temperature;BMP_pressure;BME280_temperature;BME280_humidity;BME280_pressure;Samples;Min_cycle;Max_cycle;Signal;HPM_P1;HPM_P2
2021/01/31 00:02:03;;;;;;;13.87;6.43;;;;;;;;;;5061897;28;20233;-72
2021/01/31 00:05:08;;;;;;;16.47;7.70;;;;;;;;;;5071653;28;20606;-72
2021/01/31 00:08:16;;;;;;;15.40;5.60;;;;;;;;;;5067913;28;20217;-72
2021/01/31 00:11:20;;;;;;;11.70;5.43;;;;;;;;;;5071671;28;20630;-72
2021/01/31 00:14:25;;;;;;;12.30;5.40;;;;;;;;;;5059416;28;20260;-72
2021/01/31 00:17:30;;;;;;;14.27;6.23;;;;;;;;;;5071868;28;20290;-73
2021/01/31 00:20:36;;;;;;;14.77;5.73;;;;;;;;;;5072239;28;20229;-71
2021/01/31 00:23:41;;;;;;;10.37;5.53;;;;;;;;;;5054311;28;20312;-71
2021/01/31 00:26:46;;;;;;;12.57;6.40;;;;;;;;;;5071722;28;20426;-72
2021/01/31 00:29:51;;;;;;;12.20;6.13;;;;;;;;;;5071863;28;20202;-72
2021/01/31 00:32:56;;;;;;;13.63;6.47;;;;;;;;;;5071412;28;20256;-72
2021/01/31 00:36:01;;;;;;;12.50;6.03;;;;;;;;;;5071901;28;20252;-72
2021/01/31 00:39:07;;;;;;;11.10;5.67;;;;;;;;;;5072168;28;20206;-72
2021/01/31 00:42:15;;;;;;;11.40;5.63;;;;;;;;;;5068973;28;20278;-72
2021/01/31 00:45:23;;;;;;;11.57;5.97;;;;;;;;;;5066091;28;20902;-72
2021/01/31 00:48:29;;;;;;;13.23;5.93;;;;;;;;;;5071335;28;20581;-71
2021/01/31 00:51:34;;;;;;;11.00;5.53;;;;;;;;;;5065055;28;20638;-71
2021/01/31 00:54:40;;;;;;;11.10;6.10;;;;;;;;;;5078323;28;20206;-71
2021/01/31 00:57:46;;;;;;;12.13;6.00;;;;;;;;;;5073471;28;20242;-71
2021/01/31 01:00:55;;;;;;;12.27;6.17;;;;;;;;;;5077021;28;20214;-71
2021/01/31 01:04:01;;;;;;;14.20;6.30;;;;;;;;;;5069702;28;20249;-71
2021/01/31 01:07:20;;;;;;;13.73;6.23;;;;;;;;;;5066175;28;20271;-72
2021/01/31 01:10:26;;;;;;;11.67;5.77;;;;;;;;;;5069806;28;20213;-72
2021/01/31 01:13:31;;;;;;;12.57;5.53;;;;;;;;;;5063611;28;20276;-74
2021/01/31 01:16:38;;;;;;;12.80;5.67;;;;;;;;;;5063392;28;20253;-74
2021/01/31 01:19:42;;;;;;;11.57;5.33;;;;;;;;;;5068612;28;20210;-74
2021/01/31 01:22:48;;;;;;;12.10;5.30;;;;;;;;;;5070629;28;20230;-73
2021/01/31 01:25:53;;;;;;;9.73;4.83;;;;;;;;;;5070007;28;20238;-75
2021/01/31 01:28:57;;;;;;;13.03;5.57;;;;;;;;;;5070505;28;20206;-74
2021/01/31 01:32:03;;;;;;;10.87;5.60;;;;;;;;;;5068117;28;20206;-74
2021/01/31 01:35:08;;;;;;;11.63;5.57;;;;;;;;;;5070852;28;20210;-74
2021/01/31 01:38:13;;;;;;;14.03;6.37;;;;;;;;;;5068589;28;20267;-75
2021/01/31 01:41:19;;;;;;;12.30;5.30;;;;;;;;;;5069870;28;20209;-74
2021/01/31 01:44:23;;;;;;;10.83;5.70;;;;;;;;;;5069069;28;20849;-74
2021/01/31 01:47:30;;;;;;;11.83;5.53;;;;;;;;;;5069961;28;20245;-74
2021/01/31 01:50:37;;;;;;;15.33;5.70;;;;;;;;;;5069345;28;20264;-73
2021/01/31 01:53:42;;;;;;;11.10;5.37;;;;;;;;;;5064567;28;20652;-74
2021/01/31 01:56:47;;;;;;;13.03;5.83;;;;;;;;;;5067310;28;20622;-74
2021/01/31 01:59:53;;;;;;;12.10;5.47;;;;;;;;;;5066609;28;20205;-74
2021/01/31 02:03:01;;;;;;;13.30;5.70;;;;;;;;;;5068550;28;20229;-74
2021/01/31 02:06:09;;;;;;;12.63;6.00;;;;;;;;;;5067155;28;20729;-74
2021/01/31 02:09:14;;;;;;;14.50;6.10;;;;;;;;;;5067550;28;20627;-74
2021/01/31 02:12:21;;;;;;;11.10;5.17;;;;;;;;;;5068671;28;20669;-75
2021/01/31 02:15:26;;;;;;;9.97;5.20;;;;;;;;;;5068651;28;20697;-74
2021/01/31 02:18:36;;;;;;;11.37;5.60;;;;;;;;;;5068395;28;20259;-74
2021/01/31 02:22:06;;;;;;;13.10;6.23;;;;;;;;;;5069235;28;20282;-74
2021/01/31 02:25:21;;;;;;;14.77;7.07;;;;;;;;;;5068614;28;20230;-74
2021/01/31 02:28:38;;;;;;;12.57;5.70;;;;;;;;;;5067043;28;20260;-74
2021/01/31 02:32:00;;;;;;;12.77;5.77;;;;;;;;;;5072552;28;20218;-74
2021/01/31 02:35:08;;;;;;;12.90;6.17;;;;;;;;;;5073225;28;20213;-74
2021/01/31 02:38:16;;;;;;;13.80;6.27;;;;;;;;;;5073535;28;20256;-74
2021/01/31 02:41:28;;;;;;;12.70;6.20;;;;;;;;;;5073083;28;20210;-74
2021/01/31 02:44:34;;;;;;;13.87;6.23;;;;;;;;;;5073031;28;20987;-74
2021/01/31 02:47:41;;;;;;;14.57;5.90;;;;;;;;;;5073178;28;20731;-74
2021/01/31 02:50:48;;;;;;;15.07;6.87;;;;;;;;;;5065716;28;20202;-74
2021/01/31 02:53:56;;;;;;;14.60;6.47;;;;;;;;;;5072873;28;20287;-69
2021/01/31 02:57:02;;;;;;;14.43;6.80;;;;;;;;;;5072943;28;20638;-69
2021/01/31 03:00:09;;;;;;;17.73;7.57;;;;;;;;;;5073000;28;20214;-69
2021/01/31 03:03:17;;;;;;;16.40;6.97;;;;;;;;;;5073585;28;20389;-69
2021/01/31 03:06:26;;;;;;;16.17;7.10;;;;;;;;;;5073525;28;20611;-69
2021/01/31 03:09:34;;;;;;;13.70;6.17;;;;;;;;;;5072642;28;20246;-69
2021/01/31 03:12:41;;;;;;;14.90;6.77;;;;;;;;;;5071891;28;20427;-69
2021/01/31 03:15:57;;;;;;;13.43;7.47;;;;;;;;;;5072603;28;20788;-69
2021/01/31 03:19:03;;;;;;;17.80;7.20;;;;;;;;;;5067942;28;20210;-69
2021/01/31 03:22:12;;;;;;;15.70;7.00;;;;;;;;;;5068393;28;20225;-69
2021/01/31 03:25:20;;;;;;;14.50;6.90;;;;;;;;;;5072729;28;20281;-69
2021/01/31 03:28:24;;;;;;;14.37;7.23;;;;;;;;;;5071726;28;20256;-69
2021/01/31 03:31:31;;;;;;;16.33;7.57;;;;;;;;;;5072182;28;20295;-69
2021/01/31 03:34:38;;;;;;;14.03;6.57;;;;;;;;;;5072197;28;20702;-69
2021/01/31 03:37:45;;;;;;;17.17;7.27;;;;;;;;;;5072124;28;20206;-69
2021/01/31 03:40:52;;;;;;;17.43;7.40;;;;;;;;;;5065944;28;20222;-69
2021/01/31 03:43:57;;;;;;;13.60;6.57;;;;;;;;;;5065283;28;20296;-69
2021/01/31 03:47:06;;;;;;;15.33;7.50;;;;;;;;;;5065225;28;20221;-69
2021/01/31 03:50:11;;;;;;;14.50;6.50;;;;;;;;;;5072891;28;20264;-69
2021/01/31 03:53:17;;;;;;;13.83;6.33;;;;;;;;;;5065927;28;20238;-69
2021/01/31 03:56:22;;;;;;;16.23;7.27;;;;;;;;;;5071855;28;20244;-69
2021/01/31 03:59:37;;;;;;;16.47;7.00;;;;;;;;;;5071832;28;20202;-69
2021/01/31 04:02:43;;;;;;;17.07;7.97;;;;;;;;;;5071731;28;20229;-70
2021/01/31 04:05:52;;;;;;;17.30;7.13;;;;;;;;;;5062108;28;20280;-69
2021/01/31 04:08:58;;;;;;;16.90;8.27;;;;;;;;;;5072326;28;20695;-69
2021/01/31 04:12:04;;;;;;;17.27;7.73;;;;;;;;;;5071028;28;20253;-69
2021/01/31 04:15:13;;;;;;;17.80;7.83;;;;;;;;;;5064544;28;20581;-69
2021/01/31 04:18:20;;;;;;;18.47;8.60;;;;;;;;;;5063426;28;20259;-69
2021/01/31 04:21:24;;;;;;;17.43;7.67;;;;;;;;;;5071417;28;20301;-69
2021/01/31 04:24:31;;;;;;;19.47;8.23;;;;;;;;;;5071472;28;20214;-69
2021/01/31 04:27:36;;;;;;;18.47;8.47;;;;;;;;;;5071058;28;20300;-69
2021/01/31 04:30:41;;;;;;;17.97;8.07;;;;;;;;;;5066584;28;20221;-69
2021/01/31 04:33:46;;;;;;;18.70;8.13;;;;;;;;;;5066978;28;20288;-69
2021/01/31 04:36:50;;;;;;;18.47;8.13;;;;;;;;;;5064286;28;20199;-69
2021/01/31 04:39:56;;;;;;;17.37;8.10;;;;;;;;;;5063022;28;20218;-69
2021/01/31 04:43:01;;;;;;;18.43;8.23;;;;;;;;;;5071338;28;20248;-69
2021/01/31 04:46:06;;;;;;;16.93;7.93;;;;;;;;;;5070713;28;20234;-69
2021/01/31 04:49:24;;;;;;;18.90;8.33;;;;;;;;;;5067834;28;20286;-69
2021/01/31 04:52:34;;;;;;;19.97;8.30;;;;;;;;;;5067142;28;20708;-69
2021/01/31 04:55:58;;;;;;;21.50;8.80;;;;;;;;;;5066498;28;20264;-69
2021/01/31 04:59:08;;;;;;;20.63;8.70;;;;;;;;;;5068174;28;20210;-69
2021/01/31 05:02:16;;;;;;;18.33;7.77;;;;;;;;;;5069561;28;20335;-69
2021/01/31 05:05:21;;;;;;;16.03;7.67;;;;;;;;;;5068362;28;20233;-69
2021/01/31 05:08:27;;;;;;;15.33;7.77;;;;;;;;;;5070700;28;20190;-69
2021/01/31 05:11:34;;;;;;;20.97;8.40;;;;;;;;;;5070568;28;20206;-69
2021/01/31 05:14:46;;;;;;;19.07;8.90;;;;;;;;;;5070855;28;20214;-69
2021/01/31 05:17:53;;;;;;;20.30;7.97;;;;;;;;;;5067093;28;20686;-69
2021/01/31 05:21:02;;;;;;;17.73;7.70;;;;;;;;;;5065014;28;20241;-70
2021/01/31 05:24:08;;;;;;;19.73;8.70;;;;;;;;;;5065296;28;20234;-69
2021/01/31 05:27:16;;;;;;;19.80;8.17;;;;;;;;;;5069956;28;20229;-69
2021/01/31 05:30:21;;;;;;;18.67;8.40;;;;;;;;;;5069200;28;20641;-69
2021/01/31 05:33:26;;;;;;;17.10;8.63;;;;;;;;;;5070417;28;20229;-69
2021/01/31 05:36:34;;;;;;;20.60;8.80;;;;;;;;;;5069579;28;20210;-70
2021/01/31 05:39:40;;;;;;;17.63;8.20;;;;;;;;;;5067969;28;20206;-69
2021/01/31 05:42:46;;;;;;;19.37;8.70;;;;;;;;;;5070135;28;20244;-69
2021/01/31 05:45:51;;;;;;;15.87;7.83;;;;;;;;;;5066564;28;20268;-69
2021/01/31 05:48:56;;;;;;;16.93;8.37;;;;;;;;;;5070125;28;20238;-69
2021/01/31 05:52:01;;;;;;;18.60;8.13;;;;;;;;;;5065741;28;20348;-69
2021/01/31 05:55:20;;;;;;;19.13;8.70;;;;;;;;;;5069874;28;20225;-69
2021/01/31 05:58:25;;;;;;;22.80;9.10;;;;;;;;;;5065447;28;20248;-69
2021/01/31 06:01:30;;;;;;;17.77;8.57;;;;;;;;;;5063838;28;20661;-69
2021/01/31 06:04:35;;;;;;;21.43;8.83;;;;;;;;;;5070392;28;20629;-69
2021/01/31 06:07:40;;;;;;;15.37;7.27;;;;;;;;;;5070528;28;20233;-69
2021/01/31 06:10:58;;;;;;;17.53;8.50;;;;;;;;;;5073288;28;20268;-69
2021/01/31 06:14:05;;;;;;;19.23;8.50;;;;;;;;;;5067554;28;20733;-69
2021/01/31 06:17:20;;;;;;;17.63;8.33;;;;;;;;;;5065660;28;20205;-69
2021/01/31 06:20:27;;;;;;;18.60;8.30;;;;;;;;;;5072032;28;20249;-68
2021/01/31 06:23:34;;;;;;;15.53;7.60;;;;;;;;;;5073500;28;20229;-68
2021/01/31 06:26:40;;;;;;;19.00;8.50;;;;;;;;;;5073366;28;20214;-68
2021/01/31 06:29:48;;;;;;;17.73;8.17;;;;;;;;;;5069277;28;20217;-68
2021/01/31 06:32:54;;;;;;;17.90;8.23;;;;;;;;;;5068940;28;20733;-69
2021/01/31 06:36:02;;;;;;;21.13;9.00;;;;;;;;;;5072037;28;20218;-69
2021/01/31 06:39:10;;;;;;;15.80;7.83;;;;;;;;;;5073030;28;20214;-69
2021/01/31 06:42:21;;;;;;;18.47;7.87;;;;;;;;;;5073487;28;20257;-68
2021/01/31 06:45:31;;;;;;;15.97;7.53;;;;;;;;;;5070940;28;20210;-68
2021/01/31 06:48:40;;;;;;;17.20;8.20;;;;;;;;;;5071615;28;20244;-73
2021/01/31 06:51:52;;;;;;;19.13;7.47;;;;;;;;;;5068992;28;20709;-74
2021/01/31 06:55:02;;;;;;;18.17;7.80;;;;;;;;;;5067297;28;20210;-74
2021/01/31 06:58:21;;;;;;;15.70;6.83;;;;;;;;;;5072810;28;20264;-74
2021/01/31 07:01:47;;;;;;;17.83;7.40;;;;;;;;;;5067971;28;20214;-74
2021/01/31 07:05:04;;;;;;;18.70;7.60;;;;;;;;;;5070793;28;20206;-74
2021/01/31 07:08:29;;;;;;;16.93;7.43;;;;;;;;;;5070007;28;20198;-74
2021/01/31 07:11:38;;;;;;;17.40;7.67;;;;;;;;;;5072635;28;20213;-73
2021/01/31 07:14:49;;;;;;;16.50;7.30;;;;;;;;;;5072774;28;20785;-74
2021/01/31 07:17:56;;;;;;;17.37;7.60;;;;;;;;;;5071991;28;20206;-74
2021/01/31 07:21:07;;;;;;;16.50;7.30;;;;;;;;;;5068446;28;20631;-71
2021/01/31 07:24:15;;;;;;;18.67;7.70;;;;;;;;;;5071016;28;20210;-70
2021/01/31 07:27:23;;;;;;;20.83;7.97;;;;;;;;;;5072083;28;20218;-71
2021/01/31 07:30:31;;;;;;;17.60;7.70;;;;;;;;;;5073960;28;20585;-71
2021/01/31 07:33:39;;;;;;;16.87;7.13;;;;;;;;;;5068129;28;20300;-71
2021/01/31 07:36:51;;;;;;;16.07;7.00;;;;;;;;;;5071228;28;20244;-71
2021/01/31 07:40:01;;;;;;;17.10;7.67;;;;;;;;;;5072582;28;20202;-72
2021/01/31 07:43:06;;;;;;;15.87;6.90;;;;;;;;;;5072638;28;20230;-72
2021/01/31 07:46:12;;;;;;;15.70;6.97;;;;;;;;;;5065829;28;20221;-72
2021/01/31 07:49:17;;;;;;;16.10;7.23;;;;;;;;;;5072148;28;20198;-72
2021/01/31 07:52:24;;;;;;;17.13;7.17;;;;;;;;;;5069717;28;20241;-73
2021/01/31 07:55:35;;;;;;;15.23;7.27;;;;;;;;;;5071947;28;20303;-72
2021/01/31 07:58:40;;;;;;;17.43;7.47;;;;;;;;;;5072698;28;20230;-71
2021/01/31 08:01:49;;;;;;;15.73;6.90;;;;;;;;;;5068112;28;20229;-72
2021/01/31 08:04:53;;;;;;;16.00;7.13;;;;;;;;;;5069296;28;20214;-71
2021/01/31 08:08:16;;;;;;;15.00;6.87;;;;;;;;;;5071146;28;20268;-71
2021/01/31 08:11:54;;;;;;;15.73;6.93;;;;;;;;;;5089264;28;20222;-71
2021/01/31 08:15:05;;;;;;;13.73;5.80;;;;;;;;;;5065313;28;20236;-72
2021/01/31 08:18:19;;;;;;;13.67;6.43;;;;;;;;;;5071696;28;20612;-72
2021/01/31 08:21:38;;;;;;;16.73;6.73;;;;;;;;;;5072018;28;20202;-72
2021/01/31 08:24:59;;;;;;;15.13;6.87;;;;;;;;;;5072016;28;20278;-72
2021/01/31 08:28:15;;;;;;;14.33;6.67;;;;;;;;;;5063807;28;20230;-72
2021/01/31 08:31:21;;;;;;;14.40;6.50;;;;;;;;;;5066241;28;20294;-71
2021/01/31 08:34:25;;;;;;;17.33;7.10;;;;;;;;;;5069555;28;20210;-72
2021/01/31 08:37:30;;;;;;;14.10;6.87;;;;;;;;;;5071556;28;20187;-72
2021/01/31 08:40:34;;;;;;;17.73;7.27;;;;;;;;;;5070745;28;20252;-72
2021/01/31 08:43:41;;;;;;;17.80;6.87;;;;;;;;;;5071443;28;20314;-75
2021/01/31 08:46:57;;;;;;;12.30;5.70;;;;;;;;;;5068059;28;20221;-74
2021/01/31 08:50:03;;;;;;;13.30;5.80;;;;;;;;;;5078298;28;20268;-75
2021/01/31 08:53:08;;;;;;;16.03;6.27;;;;;;;;;;5055671;28;20253;-75
2021/01/31 08:56:14;;;;;;;17.47;7.17;;;;;;;;;;5065444;28;20629;-75
2021/01/31 08:59:21;;;;;;;16.37;7.23;;;;;;;;;;5071032;28;20225;-75
2021/01/31 09:02:27;;;;;;;15.83;7.00;;;;;;;;;;5070860;28;20305;-75
2021/01/31 09:05:34;;;;;;;16.30;6.73;;;;;;;;;;5067812;28;20252;-74
2021/01/31 09:08:40;;;;;;;14.73;6.23;;;;;;;;;;5073836;28;20240;-74
2021/01/31 09:11:44;;;;;;;15.70;6.83;;;;;;;;;;5073565;28;20213;-74
2021/01/31 09:14:50;;;;;;;29.53;14.03;;;;;;;;;;5064178;28;20294;-75
2021/01/31 09:18:05;;;;;;;14.60;5.80;;;;;;;;;;5067805;28;20272;-75
2021/01/31 09:21:21;;;;;;;13.23;6.13;;;;;;;;;;5069468;28;20245;-74
2021/01/31 09:24:32;;;;;;;16.10;6.00;;;;;;;;;;5068190;28;20260;-72
2021/01/31 09:27:41;;;;;;;14.27;6.20;;;;;;;;;;5071049;28;20367;-72
2021/01/31 09:30:46;;;;;;;12.80;5.70;;;;;;;;;;5069855;28;20657;-72
2021/01/31 09:33:53;;;;;;;16.37;6.80;;;;;;;;;;5068930;28;20253;-75
2021/01/31 09:37:06;;;;;;;12.80;6.23;;;;;;;;;;5070631;28;20273;-74
2021/01/31 09:40:12;;;;;;;15.67;5.43;;;;;;;;;;5073362;28;20206;-75
2021/01/31 09:43:20;;;;;;;13.73;5.87;;;;;;;;;;5071272;28;20238;-75
2021/01/31 09:46:25;;;;;;;12.43;5.73;;;;;;;;;;5069330;28;20763;-75
2021/01/31 09:49:35;;;;;;;13.10;5.97;;;;;;;;;;5070226;28;20316;-73
2021/01/31 09:52:42;;;;;;;13.90;6.10;;;;;;;;;;5070350;28;20288;-72
2021/01/31 09:55:46;;;;;;;13.43;5.47;;;;;;;;;;5066016;28;20720;-73
2021/01/31 09:58:51;;;;;;;12.67;5.63;;;;;;;;;;5058508;28;20190;-74
2021/01/31 10:02:03;;;;;;;12.37;5.30;;;;;;;;;;5068955;28;20221;-71
2021/01/31 10:05:11;;;;;;;15.00;5.83;;;;;;;;;;5065080;28;20743;-72
2021/01/31 10:08:18;;;;;;;14.33;5.77;;;;;;;;;;5064889;28;20252;-75
2021/01/31 10:11:24;;;;;;;12.17;5.40;;;;;;;;;;5069789;28;20277;-74
2021/01/31 10:14:42;;;;;;;13.87;5.97;;;;;;;;;;5058282;28;20632;-75
2021/01/31 10:17:47;;;;;;;13.23;5.93;;;;;;;;;;5070912;28;20294;-75
2021/01/31 10:21:12;;;;;;;12.30;5.60;;;;;;;;;;5064585;28;20272;-75
2021/01/31 10:24:23;;;;;;;13.17;5.50;;;;;;;;;;5065416;28;20642;-74
2021/01/31 10:27:33;;;;;;;9.67;4.77;;;;;;;;;;5069724;28;20222;-74
2021/01/31 10:30:43;;;;;;;10.83;5.20;;;;;;;;;;5070300;28;20203;-74
2021/01/31 10:33:50;;;;;;;13.53;5.60;;;;;;;;;;5068773;28;20234;-75
2021/01/31 10:37:11;;;;;;;9.90;4.73;;;;;;;;;;5070668;28;20233;-75
2021/01/31 10:40:16;;;;;;;10.60;4.67;;;;;;;;;;5050118;28;20233;-74
2021/01/31 10:43:21;;;;;;;12.30;5.10;;;;;;;;;;5054547;28;20314;-74
2021/01/31 10:46:26;;;;;;;11.17;5.03;;;;;;;;;;5065275;28;20242;-73
2021/01/31 10:49:31;;;;;;;26.60;17.03;;;;;;;;;;5069721;28;20206;-73
2021/01/31 10:52:37;;;;;;;12.57;5.10;;;;;;;;;;5072746;28;20780;-73
2021/01/31 10:55:41;;;;;;;12.40;4.97;;;;;;;;;;5072982;28;20222;-74
2021/01/31 10:58:46;;;;;;;10.07;4.60;;;;;;;;;;5053518;28;20596;-73
2021/01/31 11:01:51;;;;;;;9.90;4.50;;;;;;;;;;5053678;28;20203;-74
2021/01/31 11:04:57;;;;;;;10.33;4.70;;;;;;;;;;5053886;28;20207;-72
2021/01/31 11:08:02;;;;;;;11.70;5.03;;;;;;;;;;5053317;28;20293;-73
2021/01/31 11:11:07;;;;;;;14.63;5.37;;;;;;;;;;5053860;28;20198;-73
2021/01/31 11:14:11;;;;;;;13.07;4.97;;;;;;;;;;5053340;28;20245;-73
2021/01/31 11:17:16;;;;;;;10.07;4.67;;;;;;;;;;5054303;28;20689;-73
2021/01/31 11:20:21;;;;;;;9.73;4.67;;;;;;;;;;5053801;28;20211;-75
2021/01/31 11:23:27;;;;;;;10.20;4.87;;;;;;;;;;5053345;28;20738;-75
2021/01/31 11:26:31;;;;;;;13.13;4.80;;;;;;;;;;5052863;28;20690;-74
2021/01/31 11:29:36;;;;;;;10.23;4.40;;;;;;;;;;5053142;28;20210;-75
2021/01/31 11:32:41;;;;;;;11.90;5.23;;;;;;;;;;5057724;28;20230;-75
2021/01/31 11:35:46;;;;;;;9.73;4.73;;;;;;;;;;5057232;28;20246;-75
2021/01/31 11:38:51;;;;;;;11.77;4.77;;;;;;;;;;5055668;28;20183;-75
2021/01/31 11:41:56;;;;;;;10.73;4.50;;;;;;;;;;5053512;28;20288;-75
2021/01/31 11:45:01;;;;;;;10.47;4.27;;;;;;;;;;5053876;28;20199;-76
2021/01/31 11:48:06;;;;;;;12.27;4.97;;;;;;;;;;5054576;28;20588;-74
2021/01/31 11:51:11;;;;;;;13.20;4.90;;;;;;;;;;5053510;28;20187;-73
2021/01/31 11:54:17;;;;;;;13.80;4.77;;;;;;;;;;5053170;28;20199;-72
2021/01/31 11:57:22;;;;;;;8.37;4.17;;;;;;;;;;5053527;28;20206;-72
2021/01/31 12:00:26;;;;;;;12.73;4.27;;;;;;;;;;5052523;28;20734;-72
2021/01/31 12:03:31;;;;;;;15.33;4.87;;;;;;;;;;5052410;28;20299;-72
2021/01/31 12:06:35;;;;;;;10.30;4.90;;;;;;;;;;5052283;28;20272;-73
2021/01/31 12:09:41;;;;;;;8.90;4.17;;;;;;;;;;5052053;28;20230;-73
2021/01/31 12:12:45;;;;;;;10.53;4.50;;;;;;;;;;5052096;28;20714;-72
2021/01/31 12:15:50;;;;;;;9.77;4.23;;;;;;;;;;5052117;28;20294;-73
2021/01/31 12:18:55;;;;;;;8.93;3.70;;;;;;;;;;5052028;28;20234;-73
2021/01/31 12:21:59;;;;;;;9.03;3.33;;;;;;;;;;5051702;28;20211;-73
2021/01/31 12:25:05;;;;;;;5.07;2.40;;;;;;;;;;5052261;28;20699;-73
2021/01/31 12:28:09;;;;;;;6.20;3.10;;;;;;;;;;5051531;28;20604;-73
2021/01/31 12:31:14;;;;;;;8.03;3.40;;;;;;;;;;5052859;28;20210;-73
2021/01/31 12:34:19;;;;;;;6.43;3.03;;;;;;;;;;5051721;28;20203;-73
2021/01/31 12:37:24;;;;;;;6.63;3.23;;;;;;;;;;5051321;28;20207;-71
2021/01/31 12:40:29;;;;;;;6.77;3.13;;;;;;;;;;5051703;28;20215;-71
2021/01/31 12:43:34;;;;;;;8.50;3.17;;;;;;;;;;5051659;28;20281;-73
2021/01/31 12:46:39;;;;;;;7.73;3.30;;;;;;;;;;5051402;28;20230;-72
2021/01/31 12:49:45;;;;;;;9.70;3.57;;;;;;;;;;5051199;28;20254;-72
2021/01/31 12:52:49;;;;;;;10.70;3.47;;;;;;;;;;5051105;28;20311;-71
2021/01/31 12:55:55;;;;;;;8.53;3.67;;;;;;;;;;5051523;28;20245;-71
2021/01/31 12:59:00;;;;;;;6.83;3.50;;;;;;;;;;5050969;28;20584;-72
2021/01/31 13:02:05;;;;;;;11.10;4.00;;;;;;;;;;5039589;28;20219;-73
2021/01/31 13:05:11;;;;;;;6.97;3.80;;;;;;;;;;5051106;28;20214;-72
2021/01/31 13:08:15;;;;;;;11.73;3.87;;;;;;;;;;5052006;28;20246;-71
2021/01/31 13:11:21;;;;;;;12.23;4.17;;;;;;;;;;5051027;28;20203;-72
2021/01/31 13:14:26;;;;;;;7.60;3.87;;;;;;;;;;5051576;28;20687;-71
2021/01/31 13:17:32;;;;;;;9.33;4.00;;;;;;;;;;5051089;28;20242;-72
2021/01/31 13:20:36;;;;;;;9.70;3.73;;;;;;;;;;5051058;28;20551;-72
2021/01/31 13:23:41;;;;;;;7.20;3.40;;;;;;;;;;5051014;28;20226;-72
2021/01/31 13:26:46;;;;;;;6.87;3.40;;;;;;;;;;5050835;28;20219;-72
2021/01/31 13:29:51;;;;;;;11.93;5.43;;;;;;;;;;5051957;28;20233;-72
2021/01/31 13:32:55;;;;;;;13.47;6.20;;;;;;;;;;5050694;28;20226;-71
2021/01/31 13:36:00;;;;;;;13.47;6.57;;;;;;;;;;5050318;28;20258;-72
2021/01/31 13:39:04;;;;;;;16.33;6.00;;;;;;;;;;5050591;28;20225;-72
2021/01/31 13:42:10;;;;;;;14.50;6.87;;;;;;;;;;5051259;28;20314;-72
2021/01/31 13:45:17;;;;;;;19.10;7.90;;;;;;;;;;5050344;28;20210;-72
2021/01/31 13:48:22;;;;;;;12.80;5.90;;;;;;;;;;5050065;28;20242;-72
2021/01/31 13:51:27;;;;;;;11.97;6.53;;;;;;;;;;5050715;28;20254;-72
2021/01/31 13:54:32;;;;;;;15.77;6.57;;;;;;;;;;5050379;28;20257;-73
2021/01/31 13:57:37;;;;;;;15.37;6.83;;;;;;;;;;5050454;28;20646;-72
2021/01/31 14:00:42;;;;;;;14.40;6.17;;;;;;;;;;5066906;28;20268;-72
2021/01/31 14:03:46;;;;;;;14.77;6.40;;;;;;;;;;5069821;28;20768;-72
2021/01/31 14:06:51;;;;;;;17.77;7.30;;;;;;;;;;5058451;28;20296;-72
2021/01/31 14:09:56;;;;;;;14.83;7.20;;;;;;;;;;5068874;28;20218;-72
2021/01/31 14:13:01;;;;;;;14.47;7.07;;;;;;;;;;5063651;28;20233;-73
2021/01/31 14:16:06;;;;;;;13.40;6.37;;;;;;;;;;5070396;28;20201;-73
2021/01/31 14:19:10;;;;;;;18.70;7.00;;;;;;;;;;5069761;28;20202;-73
2021/01/31 14:22:15;;;;;;;15.73;7.70;;;;;;;;;;5071305;28;20229;-75
2021/01/31 14:25:23;;;;;;;17.47;7.23;;;;;;;;;;5066589;28;20190;-74
2021/01/31 14:28:28;;;;;;;14.07;6.73;;;;;;;;;;5073995;28;20291;-74
2021/01/31 14:31:34;;;;;;;14.77;6.80;;;;;;;;;;5075394;28;20298;-74
2021/01/31 14:34:39;;;;;;;14.03;6.70;;;;;;;;;;5071725;28;20214;-74
2021/01/31 14:37:44;;;;;;;14.37;5.77;;;;;;;;;;5071061;28;20298;-74
2021/01/31 14:40:48;;;;;;;14.47;6.97;;;;;;;;;;5071061;28;20210;-74
2021/01/31 14:43:53;;;;;;;14.87;6.30;;;;;;;;;;5073915;28;20237;-74
2021/01/31 14:46:58;;;;;;;15.13;6.97;;;;;;;;;;5073784;28;20234;-74
2021/01/31 14:50:04;;;;;;;19.10;8.27;;;;;;;;;;5073652;28;20335;-75
2021/01/31 14:53:08;;;;;;;14.43;6.63;;;;;;;;;;5070505;28;20238;-74
2021/01/31 14:56:14;;;;;;;14.27;6.53;;;;;;;;;;5074529;28;20241;-75
2021/01/31 14:59:19;;;;;;;15.50;6.97;;;;;;;;;;5074465;28;20283;-75
2021/01/31 15:02:24;;;;;;;15.50;7.17;;;;;;;;;;5067914;28;20311;-74
2021/01/31 15:05:29;;;;;;;17.70;8.07;;;;;;;;;;5075024;28;20210;-73
2021/01/31 15:08:34;;;;;;;20.83;7.60;;;;;;;;;;5072493;28;20222;-73
2021/01/31 15:11:41;;;;;;;30.23;9.87;;;;;;;;;;5068269;28;20260;-74
2021/01/31 15:14:47;;;;;;;48.93;14.73;;;;;;;;;;5073261;28;20686;-72
2021/01/31 15:17:52;;;;;;;24.17;9.77;;;;;;;;;;5065008;28;20221;-75
2021/01/31 15:20:56;;;;;;;29.77;10.90;;;;;;;;;;5072601;28;20210;-73
2021/01/31 15:24:01;;;;;;;27.07;8.67;;;;;;;;;;5072968;28;20230;-73
2021/01/31 15:27:05;;;;;;;29.33;12.10;;;;;;;;;;5067613;28;20762;-73
2021/01/31 15:30:12;;;;;;;21.73;9.13;;;;;;;;;;5065397;28;20659;-74
2021/01/31 15:33:17;;;;;;;15.63;7.50;;;;;;;;;;5070548;28;20226;-73
2021/01/31 15:36:22;;;;;;;16.93;7.87;;;;;;;;;;5072766;28;20300;-72
2021/01/31 15:39:27;;;;;;;15.73;7.60;;;;;;;;;;5069066;28;20268;-73
2021/01/31 15:42:31;;;;;;;18.03;7.77;;;;;;;;;;5081391;28;20234;-75
2021/01/31 15:45:38;;;;;;;19.33;8.20;;;;;;;;;;5074948;28;20198;-75
2021/01/31 15:48:42;;;;;;;18.67;7.70;;;;;;;;;;5073437;28;20222;-76
2021/01/31 15:51:47;;;;;;;19.47;8.43;;;;;;;;;;5073246;28;20201;-74
2021/01/31 15:54:52;;;;;;;25.20;10.30;;;;;;;;;;5066589;28;20214;-74
2021/01/31 15:57:57;;;;;;;23.33;10.27;;;;;;;;;;5071849;28;20221;-73
2021/01/31 16:01:02;;;;;;;18.73;8.57;;;;;;;;;;5074333;28;20205;-73
2021/01/31 16:04:07;;;;;;;24.73;13.10;;;;;;;;;;5072592;28;20287;-73
2021/01/31 16:07:11;;;;;;;19.17;8.63;;;;;;;;;;5073860;28;20218;-73
2021/01/31 16:10:16;;;;;;;20.73;9.13;;;;;;;;;;5066525;28;20690;-73
2021/01/31 16:13:20;;;;;;;24.07;9.43;;;;;;;;;;5071522;28;20229;-73
2021/01/31 16:16:27;;;;;;;23.60;9.77;;;;;;;;;;5072075;28;20244;-73
2021/01/31 16:19:31;;;;;;;21.27;8.67;;;;;;;;;;5074572;28;20261;-73
2021/01/31 16:22:36;;;;;;;21.63;8.50;;;;;;;;;;5066763;28;20237;-74
2021/01/31 16:25:41;;;;;;;29.47;13.63;;;;;;;;;;5070974;28;20866;-73
2021/01/31 16:28:45;;;;;;;21.03;9.80;;;;;;;;;;5074337;28;20222;-73
2021/01/31 16:31:55;;;;;;;20.13;9.00;;;;;;;;;;5064404;28;20205;-73
2021/01/31 16:35:00;;;;;;;17.13;7.33;;;;;;;;;;5068716;28;20655;-72
2021/01/31 16:38:09;;;;;;;16.93;7.77;;;;;;;;;;5067778;28;20554;-73
2021/01/31 16:41:14;;;;;;;18.40;8.27;;;;;;;;;;5071196;28;20568;-72
2021/01/31 16:44:19;;;;;;;30.33;12.27;;;;;;;;;;5070640;28;20218;-72
2021/01/31 16:47:27;;;;;;;27.60;10.07;;;;;;;;;;5071686;28;20268;-74
2021/01/31 16:50:32;;;;;;;24.53;10.03;;;;;;;;;;5069793;28;20255;-74
2021/01/31 16:53:36;;;;;;;23.90;9.57;;;;;;;;;;5079709;28;20233;-74
2021/01/31 16:56:41;;;;;;;21.47;8.93;;;;;;;;;;5071262;28;20194;-72
2021/01/31 16:59:46;;;;;;;23.10;9.80;;;;;;;;;;5071623;28;20403;-76
2021/01/31 17:02:51;;;;;;;22.57;9.63;;;;;;;;;;5071960;28;20302;-76
2021/01/31 17:05:58;;;;;;;26.43;10.23;;;;;;;;;;5072935;28;20206;-74
2021/01/31 17:09:04;;;;;;;24.77;9.27;;;;;;;;;;5070320;28;20727;-73
2021/01/31 17:12:09;;;;;;;20.80;8.97;;;;;;;;;;5072262;28;20601;-74
2021/01/31 17:15:14;;;;;;;28.03;10.80;;;;;;;;;;5070898;28;20237;-74
2021/01/31 17:18:21;;;;;;;26.93;8.93;;;;;;;;;;5070684;28;20278;-74
2021/01/31 17:21:25;;;;;;;19.20;8.20;;;;;;;;;;5076307;28;20218;-75
2021/01/31 17:24:30;;;;;;;21.17;9.10;;;;;;;;;;5062618;28;20217;-75
2021/01/31 17:27:35;;;;;;;25.97;10.27;;;;;;;;;;5082540;28;20222;-74
2021/01/31 17:30:40;;;;;;;18.13;8.47;;;;;;;;;;5086323;28;20331;-73
2021/01/31 17:33:45;;;;;;;19.37;8.47;;;;;;;;;;5070581;28;20669;-73
2021/01/31 17:36:50;;;;;;;21.27;8.53;;;;;;;;;;5070332;28;20210;-74
2021/01/31 17:39:54;;;;;;;17.77;8.23;;;;;;;;;;5071337;28;20198;-74
2021/01/31 17:43:00;;;;;;;23.20;8.80;;;;;;;;;;5072363;28;20272;-74
2021/01/31 17:46:04;;;;;;;24.17;9.17;;;;;;;;;;5062407;28;20202;-73
2021/01/31 17:49:10;;;;;;;21.83;8.60;;;;;;;;;;5070811;28;20279;-73
2021/01/31 17:52:15;;;;;;;22.00;8.87;;;;;;;;;;5070007;28;20276;-73
2021/01/31 17:55:21;;;;;;;23.43;8.47;;;;;;;;;;5071678;28;20229;-73
2021/01/31 17:58:25;;;;;;;19.80;8.23;;;;;;;;;;5065437;28;20593;-72
2021/01/31 18:01:30;;;;;;;18.30;8.20;;;;;;;;;;5076784;28;20252;-73
2021/01/31 18:04:36;;;;;;;21.37;7.83;;;;;;;;;;5078066;28;20233;-74
2021/01/31 18:07:40;;;;;;;22.63;8.00;;;;;;;;;;5097858;28;20217;-73
2021/01/31 18:10:47;;;;;;;15.30;7.83;;;;;;;;;;5084664;28;20209;-74
2021/01/31 18:13:53;;;;;;;18.23;7.63;;;;;;;;;;5079368;28;20240;-73
2021/01/31 18:16:57;;;;;;;20.27;8.00;;;;;;;;;;5083132;28;20209;-74
2021/01/31 18:20:03;;;;;;;16.90;7.33;;;;;;;;;;5081909;28;20256;-73
2021/01/31 18:23:08;;;;;;;16.27;7.23;;;;;;;;;;5076136;28;20237;-73
2021/01/31 18:26:12;;;;;;;19.00;8.50;;;;;;;;;;5082489;28;20202;-72